createdAt,value
2023-04-29T00:02:03.302Z,101415.16
2023-04-29T00:05:06.920Z,101423.09
2023-04-29T00:08:10.551Z,101428.19
2023-04-29T00:11:12.603Z,101421.06
2023-04-29T00:14:14.543Z,101424.31
2023-04-29T00:17:17.607Z,101415.50
2023-04-29T00:20:19.701Z,101426.78
2023-04-29T00:23:21.902Z,101425.94
2023-04-29T00:26:23.955Z,101427.97
2023-04-29T00:29:27.850Z,101415.78
2023-04-29T00:32:30.132Z,101417.84
2023-04-29T00:35:32.257Z,101413.75
2023-04-29T00:38:34.419Z,101423.22
2023-04-29T00:41:36.490Z,101417.81
2023-04-29T00:44:38.797Z,101429.81
2023-04-29T00:47:40.979Z,101409.19
2023-04-29T00:50:43.510Z,101427.63
2023-04-29T00:53:47.012Z,101433.56
2023-04-29T00:56:51.285Z,101435.56
2023-04-29T00:59:53.929Z,101446.38
2023-04-29T01:02:57.479Z,101440.47
2023-04-29T01:06:18.089Z,101436.22
2023-04-29T01:09:29.859Z,101442.66
2023-04-29T01:12:50.502Z,101445.66
2023-04-29T01:16:11.142Z,101433.81
2023-04-29T01:19:20.815Z,101443.63
2023-04-29T01:22:23.537Z,101452.38
2023-04-29T01:25:25.724Z,101449.53
2023-04-29T01:29:09.966Z,101446.47
2023-04-29T01:32:26.475Z,101442.06
2023-04-29T01:35:56.056Z,101434.16
2023-04-29T01:39:08.452Z,101441.63
2023-04-29T01:42:23.889Z,101448.38
2023-04-29T01:45:27.546Z,101441.75
2023-04-29T01:48:30.044Z,101441.56
2023-04-29T01:51:34.239Z,101435.19
2023-04-29T01:54:36.853Z,101428.25
2023-04-29T01:57:39.226Z,101430.25
2023-04-29T02:00:53.023Z,101436.81
2023-04-29T02:03:55.482Z,101429.19
2023-04-29T02:06:57.730Z,101429.81
2023-04-29T02:09:59.812Z,101424.03
2023-04-29T02:13:02.052Z,101432.22
2023-04-29T02:16:12.178Z,101427.16
2023-04-29T02:19:18.972Z,101436.41
2023-04-29T02:22:22.237Z,101436.88
2023-04-29T02:25:24.488Z,101435.44
2023-04-29T02:28:26.891Z,101442.38
2023-04-29T02:31:29.419Z,101445.44
2023-04-29T02:34:32.307Z,101446.94
2023-04-29T02:37:36.251Z,101441.69
2023-04-29T02:40:43.374Z,101439.50
2023-04-29T02:43:45.800Z,101436.59
2023-04-29T02:46:48.392Z,101446.22
2023-04-29T02:49:50.957Z,101432.66
2023-04-29T02:52:53.277Z,101434.59
2023-04-29T02:55:55.946Z,101434.78
2023-04-29T02:58:58.550Z,101442.19
2023-04-29T03:02:02.128Z,101447.38
2023-04-29T03:05:05.074Z,101451.28
2023-04-29T03:08:07.676Z,101444.69
2023-04-29T03:11:09.878Z,101455.66
2023-04-29T03:14:12.093Z,101452.75
2023-04-29T03:17:14.654Z,101455.16
2023-04-29T03:20:18.091Z,101451.25
2023-04-29T03:23:20.246Z,101454.34
2023-04-29T03:26:24.526Z,101464.53
2023-04-29T03:29:27.817Z,101470.31
2023-04-29T03:32:29.982Z,101457.13
2023-04-29T03:35:32.182Z,101467.22
2023-04-29T03:38:54.550Z,101467.84
2023-04-29T03:41:56.769Z,101470.09
2023-04-29T03:44:59.003Z,101474.47
2023-04-29T03:48:01.367Z,101481.44
2023-04-29T03:51:04.390Z,101468.56
2023-04-29T03:54:10.433Z,101477.38
2023-04-29T03:57:13.741Z,101477.16
2023-04-29T04:00:16.379Z,101484.47
2023-04-29T04:03:23.024Z,101478.22
2023-04-29T04:06:25.540Z,101483.72
2023-04-29T04:09:28.153Z,101482.91
2023-04-29T04:12:30.314Z,101487.38
2023-04-29T04:15:32.703Z,101480.75
2023-04-29T04:18:38.687Z,101482.91
2023-04-29T04:21:41.425Z,101469.09
2023-04-29T04:24:48.462Z,101478.53
2023-04-29T04:27:50.701Z,101476.25
2023-04-29T04:31:05.671Z,101479.16
2023-04-29T04:34:09.602Z,101477.44
2023-04-29T04:37:12.195Z,101483.19
2023-04-29T04:40:14.429Z,101490.81
2023-04-29T04:43:36.506Z,101482.75
2023-04-29T04:46:39.398Z,101492.56
2023-04-29T04:49:49.987Z,101487.28
2023-04-29T04:52:54.461Z,101482.97
2023-04-29T04:56:14.803Z,101490.09
2023-04-29T04:59:19.323Z,101477.91
2023-04-29T05:02:21.648Z,101480.09
2023-04-29T05:05:23.860Z,101476.53
2023-04-29T05:08:26.793Z,101484.16
2023-04-29T05:11:30.999Z,101477.03
2023-04-29T05:14:53.870Z,101474.44
2023-04-29T05:17:56.506Z,101472.06
2023-04-29T05:21:01.167Z,101483.97
2023-04-29T05:24:03.673Z,101483.63
2023-04-29T05:27:05.857Z,101479.19
2023-04-29T05:30:08.924Z,101473.00
2023-04-29T05:33:11.502Z,101478.59
2023-04-29T05:36:14.599Z,101484.88
2023-04-29T05:39:17.802Z,101473.72
2023-04-29T05:42:23.919Z,101474.97
2023-04-29T05:45:26.508Z,101474.50
2023-04-29T05:48:30.070Z,101479.09
2023-04-29T05:51:32.566Z,101482.97
2023-04-29T05:54:34.829Z,101489.06
2023-04-29T05:57:37.068Z,101476.88
2023-04-29T06:00:39.612Z,101474.66
2023-04-29T06:03:48.364Z,101479.09
2023-04-29T06:07:27.023Z,101473.66
2023-04-29T06:10:38.740Z,101465.88
2023-04-29T06:13:41.227Z,101463.34
2023-04-29T06:16:43.391Z,101461.31
2023-04-29T06:19:45.760Z,101473.47
2023-04-29T06:22:47.937Z,101469.28
2023-04-29T06:25:51.682Z,101471.28
2023-04-29T06:28:55.125Z,101465.34
2023-04-29T06:31:57.634Z,101460.47
2023-04-29T06:34:59.773Z,101458.59
2023-04-29T06:38:11.155Z,101448.28
2023-04-29T06:41:32.290Z,101450.28
2023-04-29T06:44:57.596Z,101448.00
2023-04-29T06:48:11.830Z,101448.34
2023-04-29T06:51:20.121Z,101444.94
2023-04-29T06:54:22.393Z,101437.97
2023-04-29T06:57:25.840Z,101439.34
2023-04-29T07:00:27.920Z,101435.59
2023-04-29T07:03:44.702Z,101442.34
2023-04-29T07:06:47.639Z,101440.28
2023-04-29T07:09:52.438Z,101431.44
2023-04-29T07:12:55.766Z,101417.41
2023-04-29T07:15:58.104Z,101418.38
2023-04-29T07:19:01.222Z,101422.63
2023-04-29T07:22:05.485Z,101425.13
2023-04-29T07:25:08.263Z,101417.00
2023-04-29T07:28:39.192Z,101418.31
2023-04-29T07:31:44.565Z,101417.69
2023-04-29T07:34:47.777Z,101406.50
2023-04-29T07:37:51.075Z,101402.63
2023-04-29T07:40:53.867Z,101397.69
2023-04-29T07:43:56.011Z,101402.56
2023-04-29T07:46:58.468Z,101397.59
2023-04-29T07:50:00.676Z,101389.09
2023-04-29T07:53:04.000Z,101395.03
2023-04-29T07:56:07.732Z,101380.09
2023-04-29T07:59:12.707Z,101379.72
2023-04-29T08:02:24.335Z,101391.38
2023-04-29T08:05:28.023Z,101376.91
2023-04-29T08:08:33.771Z,101374.84
2023-04-29T08:11:36.215Z,101366.28
2023-04-29T08:14:39.335Z,101376.19
2023-04-29T08:17:41.797Z,101377.16
2023-04-29T08:20:43.896Z,101373.91
2023-04-29T08:23:46.096Z,101365.28
2023-04-29T08:26:48.389Z,101357.88
2023-04-29T08:29:50.654Z,101369.38
2023-04-29T08:32:53.053Z,101357.31
2023-04-29T08:36:01.111Z,101352.06
2023-04-29T08:39:04.278Z,101343.34
2023-04-29T08:42:12.413Z,101352.59
2023-04-29T08:45:17.571Z,101349.88
2023-04-29T08:49:00.205Z,101337.47
2023-04-29T08:52:03.188Z,101348.47
2023-04-29T08:55:10.328Z,101327.19
2023-04-29T08:58:14.624Z,101327.56
2023-04-29T09:01:17.094Z,101338.25
2023-04-29T09:04:30.116Z,101327.66
2023-04-29T09:07:33.571Z,101325.31
2023-04-29T09:10:45.086Z,101323.41
2023-04-29T09:13:47.511Z,101327.25
2023-04-29T09:16:50.078Z,101314.81
2023-04-29T09:24:04.229Z,101315.75
2023-04-29T09:27:06.580Z,101299.34
2023-04-29T09:30:09.875Z,101294.28
2023-04-29T09:33:14.192Z,101292.91
2023-04-29T09:36:49.514Z,101290.38
2023-04-29T09:39:52.030Z,101299.66
2023-04-29T09:42:54.155Z,101289.63
2023-04-29T09:45:57.079Z,101270.81
2023-04-29T09:49:24.133Z,101271.28
2023-04-29T09:52:40.624Z,101275.13
2023-04-29T09:55:54.942Z,101261.81
2023-04-29T09:59:08.285Z,101262.78
2023-04-29T10:02:18.446Z,101261.50
2023-04-29T10:05:28.138Z,101266.72
2023-04-29T10:08:35.439Z,101262.53
2023-04-29T10:11:37.913Z,101246.50
2023-04-29T10:14:48.131Z,101265.09
2023-04-29T10:18:07.074Z,101241.25
2023-04-29T10:21:49.901Z,101233.75
2023-04-29T10:24:55.007Z,101230.00
2023-04-29T10:28:00.932Z,101231.03
2023-04-29T10:31:06.964Z,101231.50
2023-04-29T10:34:09.265Z,101237.13
2023-04-29T10:37:12.813Z,101233.66
2023-04-29T10:40:23.009Z,101220.63
2023-04-29T10:43:27.773Z,101226.25
2023-04-29T10:46:30.344Z,101227.00
2023-04-29T10:49:35.420Z,101214.75
2023-04-29T10:52:52.232Z,101221.00
2023-04-29T10:59:43.616Z,101218.38
2023-04-29T11:02:45.904Z,101218.22
2023-04-29T11:05:48.916Z,101217.72
2023-04-29T11:09:03.249Z,101207.72
2023-04-29T11:12:06.525Z,101207.81
2023-04-29T11:15:11.339Z,101198.34
2023-04-29T11:18:15.227Z,101199.22
2023-04-29T11:21:17.798Z,101192.84
2023-04-29T11:24:20.056Z,101202.19
2023-04-29T11:27:28.454Z,101187.41
2023-04-29T11:30:32.315Z,101164.63
2023-04-29T11:33:35.217Z,101144.59
2023-04-29T11:36:42.341Z,101155.16
2023-04-29T11:39:44.574Z,101162.19
2023-04-29T11:42:50.257Z,101149.41
2023-04-29T11:45:54.357Z,101155.88
2023-04-29T11:48:59.311Z,101138.81
2023-04-29T11:52:01.793Z,101141.34
2023-04-29T11:55:06.300Z,101134.56
2023-04-29T11:58:11.607Z,101129.44
2023-04-29T12:01:14.081Z,101113.00
2023-04-29T12:04:22.132Z,101116.25
2023-04-29T12:07:48.428Z,101116.25
2023-04-29T12:10:52.057Z,101122.16
2023-04-29T12:13:57.354Z,101111.53
2023-04-29T12:17:00.786Z,101105.72
2023-04-29T12:20:03.378Z,101101.56
2023-04-29T12:23:24.964Z,101104.56
2023-04-29T12:26:28.726Z,101104.97
2023-04-29T12:29:33.527Z,101099.09
2023-04-29T12:32:37.127Z,101108.75
2023-04-29T12:35:39.239Z,101110.41
2023-04-29T12:38:43.186Z,101109.34
2023-04-29T12:41:49.141Z,101113.94
2023-04-29T12:44:52.466Z,101102.59
2023-04-29T12:47:57.747Z,101095.47
2023-04-29T12:51:02.027Z,101115.78
2023-04-29T12:54:06.318Z,101104.69
2023-04-29T12:57:11.258Z,101093.94
2023-04-29T13:00:19.953Z,101064.59
2023-04-29T13:03:28.127Z,101080.31
2023-04-29T13:06:33.825Z,101077.59
2023-04-29T13:09:41.857Z,101057.66
2023-04-29T13:12:50.295Z,101075.72
2023-04-29T13:15:54.702Z,101073.56
2023-04-29T13:19:32.163Z,101076.03
2023-04-29T13:22:51.775Z,101076.28
2023-04-29T13:25:56.061Z,101076.88
2023-04-29T13:29:08.688Z,101075.19
2023-04-29T13:32:13.515Z,101069.53
2023-04-29T13:35:15.878Z,101072.88
2023-04-29T13:38:18.678Z,101062.59
2023-04-29T13:41:26.186Z,101060.91
2023-04-29T13:44:36.006Z,101059.88
2023-04-29T13:48:05.889Z,101058.19
2023-04-29T14:01:17.156Z,101050.22
2023-04-29T14:04:37.047Z,101027.78
2023-04-29T14:07:39.435Z,101020.66
2023-04-29T14:10:43.803Z,101038.06
2023-04-29T14:13:45.884Z,101029.69
2023-04-29T14:16:48.213Z,101031.31
2023-04-29T14:19:50.302Z,101029.00
2023-04-29T14:22:55.458Z,101026.25
2023-04-29T14:26:16.636Z,101014.75
2023-04-29T14:29:20.073Z,101018.31
2023-04-29T14:32:22.219Z,101010.13
2023-04-29T14:35:24.557Z,101013.47
2023-04-29T14:38:29.007Z,101003.88
2023-04-29T14:41:31.147Z,101010.16
2023-04-29T14:44:35.180Z,101014.34
2023-04-29T14:47:43.627Z,101018.38
2023-04-29T14:50:45.791Z,101031.16
2023-04-29T14:53:48.950Z,101021.94
2023-04-29T14:56:51.049Z,101012.75
2023-04-29T14:59:53.205Z,101015.72
2023-04-29T15:03:51.029Z,101014.28
2023-04-29T15:07:19.646Z,101016.50
2023-04-29T15:10:24.381Z,101015.72
2023-04-29T15:13:30.140Z,101008.22
2023-04-29T15:16:46.939Z,101008.47
2023-04-29T15:19:49.373Z,100993.41
2023-04-29T15:22:54.853Z,100989.44
2023-04-29T15:26:04.837Z,100984.63
2023-04-29T15:29:07.694Z,100990.03
2023-04-29T15:32:11.308Z,100989.22
2023-04-29T15:35:15.684Z,100985.88
2023-04-29T15:38:18.476Z,100995.72
2023-04-29T15:41:21.836Z,100983.16
2023-04-29T15:44:24.073Z,100989.84
2023-04-29T15:47:32.854Z,100977.28
2023-04-29T15:50:38.591Z,100977.91
2023-04-29T15:53:43.851Z,100973.09
2023-04-29T15:56:51.200Z,100965.75
2023-04-29T15:59:58.819Z,100976.25
2023-04-29T16:03:13.485Z,100973.91
2023-04-29T16:06:17.973Z,100970.38
2023-04-29T16:09:23.083Z,100969.94
2023-04-29T16:12:26.715Z,100969.28
2023-04-29T16:15:34.193Z,100973.97
2023-04-29T16:18:36.347Z,100970.09
2023-04-29T16:21:39.926Z,100984.47
2023-04-29T16:24:42.829Z,100987.38
2023-04-29T16:27:45.830Z,100988.16
2023-04-29T16:30:48.104Z,100987.72
2023-04-29T16:33:50.607Z,100987.84
2023-04-29T16:36:52.856Z,100991.16
2023-04-29T16:39:55.533Z,100976.50
2023-04-29T16:42:58.045Z,100978.56
2023-04-29T16:46:02.094Z,100975.84
2023-04-29T16:49:06.189Z,100987.72
2023-04-29T16:52:09.005Z,100989.16
2023-04-29T16:55:13.467Z,100992.50
2023-04-29T16:58:17.139Z,100998.13
2023-04-29T17:01:22.095Z,100989.53
2023-04-29T17:04:26.235Z,100990.72
2023-04-29T17:07:29.137Z,100987.38
2023-04-29T17:10:31.511Z,101001.50
2023-04-29T17:13:58.493Z,101003.00
2023-04-29T17:17:05.605Z,100994.81
2023-04-29T17:20:15.434Z,101005.88
2023-04-29T17:23:17.890Z,101007.00
2023-04-29T17:26:39.366Z,100990.25
2023-04-29T17:29:46.668Z,101000.25
2023-04-29T17:32:49.979Z,101009.69
2023-04-29T17:35:52.437Z,101002.34
2023-04-29T17:38:54.539Z,101013.22
2023-04-29T17:41:57.208Z,101014.44
2023-04-29T17:44:59.213Z,101018.75
2023-04-29T17:48:01.943Z,101008.72
2023-04-29T17:51:06.613Z,101014.97
2023-04-29T17:54:11.489Z,101020.13
2023-04-29T17:57:14.800Z,101020.53
2023-04-29T18:00:18.357Z,101019.28
2023-04-29T18:03:20.497Z,101016.03
2023-04-29T18:06:26.282Z,101011.22
2023-04-29T18:09:28.487Z,101017.03
2023-04-29T18:12:33.611Z,101019.78
2023-04-29T18:15:36.100Z,101019.69
2023-04-29T18:18:58.017Z,101001.75
2023-04-29T18:22:05.657Z,101023.72
2023-04-29T18:25:07.981Z,101027.69
2023-04-29T18:28:24.971Z,101030.88
2023-04-29T18:31:27.747Z,101037.41
2023-04-29T18:34:37.744Z,101039.00
2023-04-29T18:38:18.328Z,101029.88
2023-04-29T18:41:23.314Z,101030.19
2023-04-29T18:44:30.725Z,101029.28
2023-04-29T18:47:33.057Z,101025.94
2023-04-29T18:50:49.672Z,101023.84
2023-04-29T18:53:53.421Z,101029.41
2023-04-29T18:56:56.541Z,101030.53
2023-04-29T18:59:58.751Z,101016.94
2023-04-29T19:03:03.164Z,101019.25
2023-04-29T19:06:05.356Z,101026.94
2023-04-29T19:09:07.617Z,101025.19
2023-04-29T19:12:09.967Z,101036.19
2023-04-29T19:15:12.144Z,101035.09
2023-04-29T19:18:14.238Z,101035.63
2023-04-29T19:21:17.627Z,101030.69
2023-04-29T19:24:19.850Z,101034.63
2023-04-29T19:27:45.520Z,101033.28
2023-04-29T19:30:47.686Z,101038.06
2023-04-29T19:33:54.893Z,101039.38
2023-04-29T19:36:57.026Z,101039.88
2023-04-29T19:40:07.422Z,101035.50
2023-04-29T19:43:11.963Z,101030.03
2023-04-29T19:46:14.399Z,101039.16
2023-04-29T19:49:16.613Z,101040.28
2023-04-29T19:52:18.795Z,101032.19
2023-04-29T19:55:21.108Z,101035.59
2023-04-29T19:58:27.700Z,101036.53
2023-04-29T20:01:31.325Z,101035.47
2023-04-29T20:04:35.197Z,101029.28
2023-04-29T20:07:37.954Z,101025.72
2023-04-29T20:10:42.478Z,101017.97
2023-04-29T20:13:44.961Z,101023.72
2023-04-29T20:16:47.404Z,101015.75
2023-04-29T20:19:49.838Z,101016.63
2023-04-29T20:22:52.163Z,101020.03
2023-04-29T20:25:54.598Z,101011.50
2023-04-29T20:28:56.679Z,101015.25
2023-04-29T20:31:58.844Z,101021.84
2023-04-29T20:35:03.619Z,101020.00
2023-04-29T20:38:07.517Z,101021.44
2023-04-29T20:41:09.664Z,101027.41
2023-04-29T20:44:11.713Z,101038.31
2023-04-29T20:47:14.330Z,101033.72
2023-04-29T20:50:16.527Z,101027.63
2023-04-29T20:53:18.734Z,101028.81
2023-04-29T20:56:20.922Z,101027.09
2023-04-29T20:59:23.425Z,101030.44
2023-04-29T21:02:25.724Z,101028.75
2023-04-29T21:05:30.187Z,101034.03
2023-04-29T21:08:32.155Z,101029.13
2023-04-29T21:11:34.389Z,101032.34
2023-04-29T21:14:38.253Z,101034.56
2023-04-29T21:17:42.426Z,101039.72
2023-04-29T21:20:45.888Z,101045.09
2023-04-29T21:23:49.359Z,101043.75
2023-04-29T21:26:51.653Z,101045.19
2023-04-29T21:29:53.957Z,101051.13
2023-04-29T21:32:56.665Z,101036.84
2023-04-29T21:36:00.133Z,101040.53
2023-04-29T21:39:02.374Z,101044.34
2023-04-29T21:42:04.563Z,101038.09
2023-04-29T21:45:08.027Z,101042.94
2023-04-29T21:48:12.941Z,101037.75
2023-04-29T21:51:15.146Z,101037.84
2023-04-29T21:54:17.378Z,101033.16
2023-04-29T21:57:23.965Z,101034.69
2023-04-29T22:00:36.707Z,101034.72
2023-04-29T22:03:38.991Z,101025.41
2023-04-29T22:06:41.865Z,101021.78
2023-04-29T22:09:47.353Z,101021.34
2023-04-29T22:12:49.530Z,101024.44
2023-04-29T22:15:51.622Z,101025.56
2023-04-29T22:18:54.743Z,101012.59
2023-04-29T22:21:56.945Z,101014.75
2023-04-29T22:24:59.200Z,101009.63
2023-04-29T22:28:01.723Z,101012.00
2023-04-29T22:31:04.962Z,101009.38
2023-04-29T22:34:07.150Z,101014.34
2023-04-29T22:37:09.246Z,101009.56
2023-04-29T22:40:12.411Z,101006.84
2023-04-29T22:43:14.676Z,101010.88
2023-04-29T22:46:16.730Z,101001.25
2023-04-29T22:49:19.090Z,100997.66
2023-04-29T22:52:21.151Z,100991.22
2023-04-29T22:55:24.179Z,100999.81
2023-04-29T22:58:26.730Z,100997.91
2023-04-29T23:01:29.064Z,100988.59
2023-04-29T23:04:32.627Z,100996.25
2023-04-29T23:07:34.817Z,100996.03
2023-04-29T23:10:37.003Z,100992.22
2023-04-29T23:13:39.591Z,100983.06
2023-04-29T23:16:41.717Z,100990.38
2023-04-29T23:19:43.717Z,100992.56
2023-04-29T23:22:46.248Z,100995.63
2023-04-29T23:25:48.950Z,100993.09
2023-04-29T23:28:51.100Z,100994.50
2023-04-29T23:31:53.060Z,101001.22
2023-04-29T23:34:55.232Z,100999.25
2023-04-29T23:37:57.459Z,100996.81
2023-04-29T23:40:59.558Z,100999.16
2023-04-29T23:44:02.554Z,100998.66
2023-04-29T23:47:05.064Z,101002.22
2023-04-29T23:50:07.929Z,101005.94
2023-04-29T23:53:10.147Z,100995.97
2023-04-29T23:56:12.393Z,100992.59
2023-04-29T23:59:14.572Z,100990.72
